Time;durP1;ratioP1;P1;durP2;ratioP2;P2;SDS_P1;SDS_P2;PMS_P1;PMS_P2;Temp;Humidity;BMP_temperature;BMP_pressure;BME280_temperature;BME280_humidity;BME280_pressure;Samples;Min_cycle;Max_cycle;Signal;HPM_P1;HPM_P2
2023/04/28 00:02:06;;;;;;;1999.90;999.90;;;9.40;84.00;;;;;;5071170;28;20670;-74
2023/04/28 00:04:32;;;;;;;1999.90;999.90;;;9.40;83.90;;;;;;5068294;28;20433;-74
2023/04/28 00:06:58;;;;;;;1999.90;999.90;;;9.50;83.70;;;;;;5070824;28;20043;-73
2023/04/28 00:09:23;;;;;;;1999.90;999.90;;;9.50;83.30;;;;;;5050971;28;20583;-74
2023/04/28 00:11:49;;;;;;;1999.90;999.90;;;9.50;83.50;;;;;;5065165;28;20123;-74
2023/04/28 00:14:15;;;;;;;1999.90;999.90;;;9.50;84.70;;;;;;5071226;28;20039;-74
2023/04/28 00:16:41;;;;;;;1999.90;999.90;;;9.50;84.00;;;;;;5070671;28;20040;-74
2023/04/28 00:19:06;;;;;;;1999.90;999.90;;;9.40;83.60;;;;;;5072711;28;20020;-74
2023/04/28 00:21:32;;;;;;;1999.90;999.90;;;9.40;84.50;;;;;;5050230;28;20099;-74
2023/04/28 00:23:58;;;;;;;1999.90;999.90;;;9.30;86.30;;;;;;5053178;28;20525;-74
2023/04/28 00:26:24;;;;;;;1999.90;999.90;;;9.30;85.00;;;;;;5066665;28;20036;-74
2023/04/28 00:28:50;;;;;;;1999.90;999.90;;;9.40;85.30;;;;;;5036768;28;20040;-73
2023/04/28 00:31:16;;;;;;;1999.90;999.90;;;9.10;86.50;;;;;;5064426;28;20032;-74
2023/04/28 00:33:42;;;;;;;1999.90;999.90;;;9.10;87.70;;;;;;5069822;28;20037;-74
2023/04/28 00:36:09;;;;;;;1999.90;999.90;;;9.20;87.30;;;;;;5046714;28;20036;-73
2023/04/28 00:38:35;;;;;;;1999.90;999.90;;;9.10;86.90;;;;;;5070887;28;20032;-74
2023/04/28 00:41:00;;;;;;;1999.90;999.90;;;9.10;87.30;;;;;;5064970;28;20033;-74
2023/04/28 00:43:26;;;;;;;1999.90;999.90;;;9.10;87.70;;;;;;5053117;28;20053;-75
2023/04/28 00:45:52;;;;;;;1999.90;999.90;;;9.10;88.50;;;;;;5049289;28;20075;-75
2023/04/28 00:48:18;;;;;;;1999.90;999.90;;;9.00;89.10;;;;;;5070591;28;20147;-75
2023/04/28 00:50:45;;;;;;;1999.90;999.90;;;8.90;89.40;;;;;;5060557;28;20036;-75
2023/04/28 00:53:11;;;;;;;1999.90;999.90;;;9.10;90.30;;;;;;5071975;28;20039;-74
2023/04/28 00:55:38;;;;;;;1999.90;999.90;;;9.10;89.50;;;;;;5048638;28;20024;-75
2023/04/28 00:58:08;;;;;;;1999.90;999.90;;;9.10;89.10;;;;;;5070072;28;20545;-75
2023/04/28 01:00:34;;;;;;;1999.90;999.90;;;8.90;89.40;;;;;;5046449;28;20064;-75
2023/04/28 01:03:00;;;;;;;1999.90;999.90;;;8.80;90.30;;;;;;5048345;28;20063;-75
2023/04/28 01:05:26;;;;;;;1999.90;999.90;;;9.20;90.40;;;;;;5065670;28;20037;-75
2023/04/28 01:07:52;;;;;;;1999.90;999.90;;;9.10;90.30;;;;;;5070017;28;20041;-75
2023/04/28 01:10:18;;;;;;;1999.90;999.90;;;9.20;90.50;;;;;;5067542;28;20085;-75
2023/04/28 01:12:43;;;;;;;1999.90;999.90;;;9.10;90.00;;;;;;5048697;28;20115;-75
2023/04/28 01:15:17;;;;;;;1999.90;999.90;;;9.10;89.50;;;;;;5066384;28;20789;-75
2023/04/28 01:17:42;;;;;;;1999.90;999.90;;;9.10;90.10;;;;;;5075164;28;20033;-75
2023/04/28 01:20:09;;;;;;;1999.90;999.90;;;9.30;89.90;;;;;;5073581;28;20727;-75
2023/04/28 01:22:35;;;;;;;1999.90;999.90;;;9.30;89.50;;;;;;5070885;28;20593;-75
2023/04/28 01:25:02;;;;;;;1999.90;999.90;;;9.20;90.00;;;;;;5052142;28;20520;-75
2023/04/28 01:27:28;;;;;;;1999.90;999.90;;;9.10;89.90;;;;;;5058103;28;20027;-75
2023/04/28 01:29:54;;;;;;;1999.90;999.90;;;9.20;89.00;;;;;;5051005;28;20117;-75
2023/04/28 01:32:20;;;;;;;1999.90;999.90;;;9.30;89.70;;;;;;5073327;28;20028;-74
2023/04/28 01:34:46;;;;;;;1999.90;999.90;;;9.20;89.80;;;;;;5052802;28;20033;-74
2023/04/28 01:37:12;;;;;;;1999.90;999.90;;;9.10;89.90;;;;;;5076547;28;20035;-76
2023/04/28 01:39:37;;;;;;;1999.90;999.90;;;9.30;90.10;;;;;;5067261;28;20028;-75
2023/04/28 01:42:03;;;;;;;1999.90;999.90;;;9.40;89.00;;;;;;5055779;28;20024;-75
2023/04/28 01:44:29;;;;;;;1999.90;999.90;;;9.40;88.30;;;;;;5071613;28;20035;-75
2023/04/28 01:46:54;;;;;;;1999.90;999.90;;;9.20;88.30;;;;;;5073870;28;20086;-76
2023/04/28 01:49:20;;;;;;;1999.90;999.90;;;9.20;88.80;;;;;;5067952;28;20106;-75
2023/04/28 01:51:46;;;;;;;1999.90;999.90;;;9.40;89.00;;;;;;5074781;28;20111;-75
2023/04/28 01:54:11;;;;;;;1999.90;999.90;;;9.30;88.90;;;;;;5053319;28;20146;-75
2023/04/28 01:59:21;;;;;;;1999.90;999.90;;;9.40;87.90;;;;;;5071405;28;20040;-75
2023/04/28 02:01:47;;;;;;;1999.90;999.90;;;9.40;88.50;;;;;;5072611;28;20399;-75
2023/04/28 02:04:12;;;;;;;1999.90;999.90;;;9.40;87.60;;;;;;5074734;28;20090;-75
2023/04/28 02:06:38;;;;;;;1999.90;999.90;;;9.30;89.50;;;;;;5070131;28;20547;-75
2023/04/28 02:09:04;;;;;;;1999.90;999.90;;;9.40;89.30;;;;;;5073700;28;20039;-75
2023/04/28 02:11:29;;;;;;;1999.90;999.90;;;9.40;89.20;;;;;;5071440;28;20047;-75
2023/04/28 02:13:55;;;;;;;1999.90;999.90;;;9.50;89.00;;;;;;5067704;28;20082;-74
2023/04/28 02:16:20;;;;;;;1999.90;999.90;;;9.40;88.60;;;;;;5056017;28;20040;-74
2023/04/28 02:18:46;;;;;;;1999.90;999.90;;;9.50;89.10;;;;;;5071046;28;20037;-76
2023/04/28 02:21:12;;;;;;;1999.90;999.90;;;9.30;89.80;;;;;;5039625;28;20034;-75
2023/04/28 02:23:38;;;;;;;1999.90;999.90;;;9.30;89.70;;;;;;5065824;28;20060;-75
2023/04/28 02:26:04;;;;;;;1999.90;999.90;;;9.40;90.00;;;;;;5056779;28;20524;-75
2023/04/28 02:28:31;;;;;;;1999.90;999.90;;;9.40;89.80;;;;;;5052106;28;20493;-76
2023/04/28 02:31:08;;;;;;;1999.90;999.90;;;9.20;90.10;;;;;;5058089;28;20032;-75
2023/04/28 02:33:35;;;;;;;1999.90;999.90;;;9.00;90.30;;;;;;5070684;28;20097;-75
2023/04/28 02:36:01;;;;;;;1999.90;999.90;;;9.00;90.60;;;;;;5050529;28;20097;-75
2023/04/28 02:38:28;;;;;;;1999.90;999.90;;;9.00;90.90;;;;;;5050233;28;20703;-75
2023/04/28 02:41:04;;;;;;;1999.90;999.90;;;9.10;91.00;;;;;;5056106;28;20128;-75
2023/04/28 02:43:33;;;;;;;1999.90;999.90;;;9.10;90.70;;;;;;5069045;28;20695;-75
2023/04/28 02:46:04;;;;;;;1999.90;999.90;;;9.00;90.40;;;;;;5070778;28;20152;-75
2023/04/28 02:48:31;;;;;;;1999.90;999.90;;;8.90;90.20;;;;;;5069277;28;20438;-75
2023/04/28 02:50:57;;;;;;;1999.90;999.90;;;8.90;90.50;;;;;;5062624;28;20032;-75
2023/04/28 02:53:23;;;;;;;1999.90;999.90;;;9.00;90.40;;;;;;5053997;28;20254;-75
2023/04/28 02:55:48;;;;;;;1999.90;999.90;;;9.00;89.90;;;;;;5070376;28;20060;-74
2023/04/28 02:58:14;;;;;;;1999.90;999.90;;;9.20;89.40;;;;;;5052830;28;20025;-75
2023/04/28 03:00:40;;;;;;;1999.90;999.90;;;9.20;89.60;;;;;;5054565;28;20040;-76
2023/04/28 03:03:05;;;;;;;1999.90;999.90;;;9.00;89.80;;;;;;5047588;28;20055;-75
2023/04/28 03:05:31;;;;;;;1999.90;999.90;;;9.10;90.00;;;;;;5065240;28;20108;-75
2023/04/28 03:07:58;;;;;;;1999.90;999.90;;;9.20;90.10;;;;;;5072005;28;20040;-75
2023/04/28 03:10:23;;;;;;;1999.90;999.90;;;9.20;88.80;;;;;;5073967;28;20136;-75
2023/04/28 03:12:49;;;;;;;1999.90;999.90;;;9.10;88.90;;;;;;5072599;28;20500;-75
2023/04/28 03:15:15;;;;;;;1999.90;999.90;;;9.20;90.00;;;;;;5069555;28;20036;-75
2023/04/28 03:17:42;;;;;;;1999.90;999.90;;;9.20;89.70;;;;;;5053754;28;20059;-75
2023/04/28 03:20:08;;;;;;;1999.90;999.90;;;9.10;89.70;;;;;;5070133;28;20036;-75
2023/04/28 03:22:35;;;;;;;1999.90;999.90;;;9.10;90.10;;;;;;5047501;28;20839;-74
2023/04/28 03:25:00;;;;;;;1999.90;999.90;;;9.10;90.50;;;;;;5070208;28;20758;-75
2023/04/28 03:27:27;;;;;;;1999.90;999.90;;;9.40;90.10;;;;;;5066595;28;20040;-75
2023/04/28 03:29:53;;;;;;;1999.90;999.90;;;9.30;89.30;;;;;;5060729;28;20055;-76
2023/04/28 03:32:18;;;;;;;1999.90;999.90;;;9.20;89.80;;;;;;5069181;28;20489;-75
2023/04/28 03:34:44;;;;;;;1999.90;999.90;;;9.30;90.30;;;;;;5045038;28;20033;-76
2023/04/28 03:37:10;;;;;;;1999.90;999.90;;;9.10;90.70;;;;;;5072522;28;20088;-75
2023/04/28 03:39:35;;;;;;;1999.90;999.90;;;8.80;91.60;;;;;;5051595;28;20096;-75
2023/04/28 03:42:01;;;;;;;1999.90;999.90;;;9.00;92.30;;;;;;5074459;28;20393;-75
2023/04/28 03:44:27;;;;;;;1999.90;999.90;;;8.90;92.50;;;;;;5069242;28;20024;-75
2023/04/28 03:46:53;;;;;;;1999.90;999.90;;;8.90;92.60;;;;;;5048651;28;20028;-75
2023/04/28 03:49:18;;;;;;;1999.90;999.90;;;8.90;92.80;;;;;;5068279;28;20044;-75
2023/04/28 03:51:44;;;;;;;1999.90;999.90;;;8.90;93.10;;;;;;5070566;28;20064;-75
2023/04/28 03:54:10;;;;;;;1999.90;999.90;;;8.90;93.10;;;;;;5072789;28;20035;-75
2023/04/28 03:56:35;;;;;;;1999.90;999.90;;;9.00;92.80;;;;;;5070801;28;20081;-75
2023/04/28 03:59:01;;;;;;;1999.90;999.90;;;8.90;93.40;;;;;;5055913;28;20397;-75
2023/04/28 04:01:27;;;;;;;1999.90;999.90;;;8.90;93.50;;;;;;5038743;28;20033;-75
2023/04/28 04:03:52;;;;;;;1999.90;999.90;;;8.90;94.70;;;;;;5066224;28;20051;-76
2023/04/28 04:06:18;;;;;;;1999.90;999.90;;;8.80;95.50;;;;;;5049450;28;20110;-75
2023/04/28 04:08:44;;;;;;;1999.90;999.90;;;8.80;97.40;;;;;;5045692;28;20041;-75
2023/04/28 04:11:10;;;;;;;1999.90;999.90;;;8.70;97.30;;;;;;5072980;28;20027;-75
2023/04/28 04:13:35;;;;;;;1999.90;999.90;;;8.70;98.20;;;;;;5063205;28;20037;-75
2023/04/28 04:16:01;;;;;;;1999.90;999.90;;;8.50;98.30;;;;;;5068236;28;20600;-76
2023/04/28 04:18:27;;;;;;;1999.90;999.90;;;8.50;99.40;;;;;;5066466;28;20032;-75
2023/04/28 04:20:54;;;;;;;1999.90;999.90;;;8.50;99.90;;;;;;5044787;28;20115;-75
2023/04/28 04:23:20;;;;;;;1999.90;999.90;;;8.60;99.90;;;;;;5064682;28;20084;-75
2023/04/28 04:25:46;;;;;;;1999.90;999.90;;;8.60;99.90;;;;;;5049929;28;20435;-75
2023/04/28 04:28:12;;;;;;;1999.90;999.90;;;8.70;99.90;;;;;;5046649;28;20085;-75
2023/04/28 04:30:38;;;;;;;1999.90;999.90;;;8.70;99.90;;;;;;5070007;28;20533;-75
2023/04/28 04:33:03;;;;;;;1999.90;999.90;;;8.70;99.90;;;;;;5047330;28;20032;-75
2023/04/28 04:35:29;;;;;;;1999.90;999.90;;;8.70;99.90;;;;;;5042693;28;20048;-75
2023/04/28 04:37:55;;;;;;;1999.90;999.90;;;8.70;99.90;;;;;;5063587;28;20107;-76
2023/04/28 04:40:21;;;;;;;1999.90;999.90;;;8.80;99.90;;;;;;5069410;28;20184;-74
2023/04/28 04:42:46;;;;;;;1999.90;999.90;;;8.80;99.90;;;;;;5064125;28;20546;-76
2023/04/28 04:45:12;;;;;;;1999.90;999.90;;;8.80;99.90;;;;;;5070023;28;20035;-75
2023/04/28 04:47:38;;;;;;;1999.90;999.90;;;8.80;99.90;;;;;;5063874;28;20115;-75
2023/04/28 04:50:05;;;;;;;1999.90;999.90;;;8.90;99.90;;;;;;5061557;28;20024;-75
2023/04/28 04:52:31;;;;;;;1999.90;999.90;;;8.90;99.90;;;;;;5065597;28;20064;-75
2023/04/28 04:54:56;;;;;;;1999.90;999.90;;;8.90;99.90;;;;;;5048908;28;20076;-75
2023/04/28 04:57:22;;;;;;;1999.90;999.90;;;8.90;99.90;;;;;;5048431;28;20075;-75
2023/04/28 04:59:47;;;;;;;1999.90;999.90;;;8.90;99.90;;;;;;5066210;28;20123;-75
2023/04/28 05:02:13;;;;;;;1999.90;999.90;;;9.00;99.90;;;;;;5069351;28;20790;-75
2023/04/28 05:04:39;;;;;;;1999.90;999.90;;;9.00;99.90;;;;;;5064550;28;20041;-75
2023/04/28 05:07:05;;;;;;;1999.90;999.90;;;9.00;99.90;;;;;;5047700;28;20054;-76
2023/04/28 05:09:32;;;;;;;1999.90;999.90;;;9.00;99.90;;;;;;5068640;28;20574;-76
2023/04/28 05:11:57;;;;;;;1999.90;999.90;;;9.00;99.90;;;;;;5045318;28;20040;-76
2023/04/28 05:14:23;;;;;;;1999.90;999.90;;;9.10;99.90;;;;;;5068766;28;20034;-75
2023/04/28 05:16:49;;;;;;;1999.90;999.90;;;8.90;99.90;;;;;;5049300;28;20644;-75
2023/04/28 05:19:15;;;;;;;1999.90;999.90;;;9.00;99.90;;;;;;5066282;28;20497;-75
2023/04/28 05:21:40;;;;;;;1999.90;999.90;;;9.00;99.90;;;;;;5046515;28;20575;-74
2023/04/28 05:24:06;;;;;;;1999.90;999.90;;;9.00;99.90;;;;;;5061420;28;20052;-74
2023/04/28 05:26:32;;;;;;;1999.90;999.90;;;9.00;99.90;;;;;;5062984;28;20037;-75
2023/04/28 05:28:57;;;;;;;1999.90;999.90;;;9.10;99.90;;;;;;5067755;28;20093;-74
2023/04/28 05:31:23;;;;;;;1999.90;999.90;;;9.00;99.90;;;;;;5048982;28;20120;-74
2023/04/28 05:33:48;;;;;;;1999.90;999.90;;;9.10;99.90;;;;;;5062467;28;20108;-74
2023/04/28 05:36:15;;;;;;;1999.90;999.90;;;9.10;99.90;;;;;;5045639;28;20032;-74
2023/04/28 05:38:42;;;;;;;1999.90;999.90;;;9.10;99.90;;;;;;5046338;28;20047;-76
2023/04/28 05:41:08;;;;;;;1999.90;999.90;;;9.10;99.90;;;;;;5069559;28;20028;-75
2023/04/28 05:43:33;;;;;;;1999.90;999.90;;;9.20;99.90;;;;;;5062581;28;20074;-75
2023/04/28 05:46:00;;;;;;;1999.90;999.90;;;9.20;99.90;;;;;;5057504;28;20036;-74
2023/04/28 05:48:26;;;;;;;1999.90;999.90;;;9.20;99.90;;;;;;5048022;28;20051;-75
2023/04/28 05:50:51;;;;;;;1999.90;999.90;;;9.30;99.90;;;;;;5047963;28;20390;-75
2023/04/28 05:53:17;;;;;;;1999.90;999.90;;;9.30;99.90;;;;;;5066340;28;20101;-75
2023/04/28 05:55:43;;;;;;;1999.90;999.90;;;9.40;99.90;;;;;;5062040;28;20052;-75
2023/04/28 05:58:09;;;;;;;1999.90;999.90;;;9.50;99.90;;;;;;5049450;28;20025;-75
2023/04/28 06:00:35;;;;;;;1999.90;999.90;;;9.50;99.90;;;;;;5037138;28;20033;-76
2023/04/28 06:03:00;;;;;;;1999.90;999.90;;;9.50;99.90;;;;;;5063986;28;20491;-75
2023/04/28 06:05:26;;;;;;;1999.90;999.90;;;9.50;99.90;;;;;;5044940;28;20037;-75
2023/04/28 06:07:54;;;;;;;1999.90;999.90;;;9.60;99.90;;;;;;5047331;28;20037;-76
2023/04/28 06:10:21;;;;;;;1999.90;999.90;;;9.60;99.90;;;;;;5066241;28;20060;-75
2023/04/28 06:12:46;;;;;;;1999.90;999.90;;;9.70;99.90;;;;;;5065609;28;20442;-74
2023/04/28 06:15:12;;;;;;;1999.90;999.90;;;9.60;99.90;;;;;;5053661;28;20032;-75
2023/04/28 06:17:38;;;;;;;1999.90;999.90;;;9.70;99.90;;;;;;5067160;28;20028;-75
2023/04/28 06:20:06;;;;;;;1999.90;999.90;;;9.80;99.90;;;;;;5069625;28;20037;-75
2023/04/28 06:22:32;;;;;;;1999.90;999.90;;;9.80;99.90;;;;;;5051913;28;20024;-75
2023/04/28 06:24:57;;;;;;;1999.90;999.90;;;9.90;99.90;;;;;;5067637;28;20481;-75
2023/04/28 06:27:23;;;;;;;1999.90;999.90;;;10.00;99.90;;;;;;5049333;28;20074;-72
2023/04/28 06:29:49;;;;;;;1999.90;999.90;;;10.00;99.90;;;;;;5067209;28;20040;-75
2023/04/28 06:32:14;;;;;;;1999.90;999.90;;;10.10;99.90;;;;;;5048517;28;20036;-75
2023/04/28 06:34:41;;;;;;;1999.90;999.90;;;10.10;99.90;;;;;;5050987;28;20024;-74
2023/04/28 06:37:06;;;;;;;1999.90;999.90;;;10.10;99.90;;;;;;5064934;28;20064;-75
2023/04/28 06:39:32;;;;;;;1999.90;999.90;;;10.00;99.90;;;;;;5072662;28;20083;-75
2023/04/28 06:41:58;;;;;;;1999.90;999.90;;;10.10;99.90;;;;;;5037709;28;20482;-75
2023/04/28 06:44:23;;;;;;;1999.90;999.90;;;10.10;99.90;;;;;;5050476;28;20024;-75
2023/04/28 06:46:49;;;;;;;1999.90;999.90;;;10.10;99.90;;;;;;5051639;28;20124;-75
2023/04/28 06:49:15;;;;;;;1999.90;999.90;;;10.20;99.90;;;;;;5072793;28;20527;-75
2023/04/28 06:51:40;;;;;;;1999.90;999.90;;;10.10;99.90;;;;;;5068790;28;20075;-76
2023/04/28 06:54:06;;;;;;;1999.90;999.90;;;10.10;99.90;;;;;;5069419;28;20063;-76
2023/04/28 06:56:32;;;;;;;1999.90;999.90;;;10.00;99.90;;;;;;5052395;28;20490;-75
2023/04/28 06:58:58;;;;;;;1999.90;999.90;;;10.00;99.90;;;;;;5065115;28;20025;-76
2023/04/28 07:01:24;;;;;;;1999.90;999.90;;;10.00;99.90;;;;;;5067371;28;20035;-76
2023/04/28 07:03:50;;;;;;;1999.90;999.90;;;10.10;99.90;;;;;;5053348;28;20491;-75
2023/04/28 07:06:15;;;;;;;1999.90;999.90;;;10.10;99.90;;;;;;5048420;28;20043;-75
2023/04/28 07:08:43;;;;;;;1999.90;999.90;;;10.00;99.90;;;;;;5069814;28;20044;-76
2023/04/28 07:11:09;;;;;;;1999.90;999.90;;;9.90;99.90;;;;;;5054688;28;20032;-75
2023/04/28 07:13:35;;;;;;;1999.90;999.90;;;9.80;99.90;;;;;;5050842;28;20927;-75
2023/04/28 07:16:00;;;;;;;1999.90;999.90;;;9.80;99.90;;;;;;5067871;28;20552;-75
2023/04/28 07:18:26;;;;;;;1999.90;999.90;;;10.00;99.90;;;;;;5050561;28;20032;-75
2023/04/28 07:20:52;;;;;;;1999.90;999.90;;;9.90;99.90;;;;;;5068925;28;20696;-75
2023/04/28 07:23:18;;;;;;;1999.90;999.90;;;10.00;99.90;;;;;;5071240;28;20044;-76
2023/04/28 07:25:43;;;;;;;1999.90;999.90;;;9.90;99.90;;;;;;5050560;28;20113;-76
2023/04/28 07:28:09;;;;;;;1999.90;999.90;;;9.90;99.90;;;;;;5066673;28;20039;-76
2023/04/28 07:30:35;;;;;;;1999.90;999.90;;;10.10;99.90;;;;;;5033786;28;20032;-76
2023/04/28 07:33:01;;;;;;;1999.90;999.90;;;10.10;99.90;;;;;;5068792;28;20103;-76
2023/04/28 07:35:27;;;;;;;1999.90;999.90;;;10.10;99.90;;;;;;5067364;28;20044;-76
2023/04/28 07:37:54;;;;;;;1999.90;999.90;;;10.30;99.90;;;;;;5035517;28;20395;-75
2023/04/28 07:40:21;;;;;;;1999.90;999.90;;;10.20;99.90;;;;;;5052157;28;20028;-76
2023/04/28 07:42:47;;;;;;;1999.90;999.90;;;10.20;99.90;;;;;;5074432;28;20025;-75
2023/04/28 07:45:14;;;;;;;1999.90;999.90;;;10.40;99.90;;;;;;5049318;28;20039;-74
2023/04/28 07:47:41;;;;;;;1999.90;999.90;;;10.50;99.90;;;;;;5067152;28;20021;-75
2023/04/28 07:50:07;;;;;;;1999.90;999.90;;;10.50;99.90;;;;;;5068773;28;20032;-74
2023/04/28 07:52:33;;;;;;;1999.90;999.90;;;10.40;99.90;;;;;;5050678;28;20078;-74
2023/04/28 07:54:59;;;;;;;1999.90;999.90;;;10.50;99.90;;;;;;5047681;28;20047;-74
2023/04/28 07:57:25;;;;;;;1999.90;999.90;;;10.60;99.90;;;;;;5074584;28;20727;-75
2023/04/28 07:59:51;;;;;;;1999.90;999.90;;;10.60;99.90;;;;;;5068190;28;20033;-75
2023/04/28 08:02:19;;;;;;;1999.90;999.90;;;10.60;99.90;;;;;;5063265;28;20033;-75
2023/04/28 08:04:45;;;;;;;1999.90;999.90;;;10.60;99.90;;;;;;5065308;28;20505;-74
2023/04/28 08:07:11;;;;;;;1999.90;999.90;;;10.40;99.90;;;;;;5050824;28;20028;-75
2023/04/28 08:09:37;;;;;;;1999.90;999.90;;;10.50;99.90;;;;;;5068983;28;20036;-75
2023/04/28 08:12:03;;;;;;;1999.90;999.90;;;10.60;99.90;;;;;;5067320;28;20032;-73
2023/04/28 08:14:28;;;;;;;1999.90;999.90;;;10.50;99.90;;;;;;5065142;28;20052;-75
2023/04/28 08:16:54;;;;;;;1999.90;999.90;;;10.50;99.90;;;;;;5063715;28;20104;-75
2023/04/28 08:19:20;;;;;;;1999.90;999.90;;;10.70;99.90;;;;;;5071389;28;20036;-75
2023/04/28 08:21:46;;;;;;;1999.90;999.90;;;10.70;99.90;;;;;;5068218;28;20029;-75
2023/04/28 08:24:11;;;;;;;1999.90;999.90;;;10.70;99.90;;;;;;5060404;28;20556;-75
2023/04/28 08:26:37;;;;;;;1999.90;999.90;;;10.60;99.90;;;;;;5061151;28;20047;-75
2023/04/28 08:29:03;;;;;;;1999.90;999.90;;;10.70;99.90;;;;;;5066786;28;20529;-74
2023/04/28 08:31:29;;;;;;;1999.90;999.90;;;10.60;99.90;;;;;;5066158;28;20081;-75
2023/04/28 08:33:55;;;;;;;1999.90;999.90;;;10.80;99.90;;;;;;5048543;28;20037;-75
2023/04/28 08:36:22;;;;;;;1999.90;999.90;;;10.60;99.90;;;;;;5072223;28;20494;-75
2023/04/28 08:38:48;;;;;;;1999.90;999.90;;;10.60;99.90;;;;;;5068683;28;20493;-75
2023/04/28 08:41:18;;;;;;;1999.90;999.90;;;10.60;99.90;;;;;;5065218;28;20032;-75
2023/04/28 08:43:44;;;;;;;1999.90;999.90;;;10.60;99.90;;;;;;5047339;28;20033;-75
2023/04/28 08:46:10;;;;;;;1999.90;999.90;;;10.70;99.90;;;;;;5052483;28;20778;-75
2023/04/28 08:48:42;;;;;;;1999.90;999.90;;;11.00;99.90;;;;;;5068817;28;20036;-75
2023/04/28 08:51:08;;;;;;;1999.90;999.90;;;10.90;99.90;;;;;;5068134;28;20106;-75
2023/04/28 08:53:38;;;;;;;1999.90;999.90;;;10.90;99.90;;;;;;5064772;28;20442;-75
2023/04/28 08:56:06;;;;;;;1999.90;999.90;;;10.80;99.90;;;;;;5047731;28;20036;-75
2023/04/28 08:58:36;;;;;;;1999.90;999.90;;;10.80;99.90;;;;;;5067625;28;20036;-75
2023/04/28 09:01:03;;;;;;;1999.90;999.90;;;10.70;99.90;;;;;;5067424;28;20037;-75
2023/04/28 09:03:30;;;;;;;1999.90;999.90;;;10.70;99.90;;;;;;5070807;28;20529;-75
2023/04/28 09:05:56;;;;;;;1999.90;999.90;;;10.80;99.90;;;;;;5067543;28;20469;-75
2023/04/28 09:08:21;;;;;;;1999.90;999.90;;;10.80;99.90;;;;;;5050518;28;20032;-76
2023/04/28 09:10:47;;;;;;;1999.90;999.90;;;10.70;99.90;;;;;;5068065;28;20492;-76
2023/04/28 09:13:25;;;;;;;1999.90;999.90;;;10.80;99.90;;;;;;5074479;28;20032;-76
2023/04/28 09:15:58;;;;;;;1999.90;999.90;;;10.80;99.90;;;;;;5065301;28;20430;-76
2023/04/28 09:18:24;;;;;;;1999.90;999.90;;;10.80;99.90;;;;;;5050783;28;21324;-75
2023/04/28 09:20:49;;;;;;;1999.90;999.90;;;10.80;99.90;;;;;;5046613;28;20067;-76
2023/04/28 09:23:15;;;;;;;1999.90;999.90;;;11.00;99.90;;;;;;5061560;28;20415;-75
2023/04/28 09:26:03;;;;;;;1999.90;999.90;;;11.00;99.90;;;;;;5072226;28;20036;-76
2023/04/28 09:28:30;;;;;;;1999.90;999.90;;;11.20;99.90;;;;;;5066964;28;20557;-75
2023/04/28 09:30:56;;;;;;;1999.90;999.90;;;11.20;99.90;;;;;;5065023;28;20489;-75
2023/04/28 09:33:22;;;;;;;1999.90;999.90;;;11.40;99.90;;;;;;5070016;28;20108;-76
2023/04/28 09:35:48;;;;;;;1999.90;999.90;;;11.60;99.90;;;;;;5068115;28;20040;-76
2023/04/28 09:38:15;;;;;;;1999.90;999.90;;;11.80;99.90;;;;;;5077124;28;20806;-76
2023/04/28 09:41:01;;;;;;;1999.90;999.90;;;11.80;99.90;;;;;;5071816;28;20533;-75
2023/04/28 09:43:27;;;;;;;1999.90;999.90;;;12.00;99.90;;;;;;5076782;28;20020;-76
2023/04/28 09:45:53;;;;;;;1999.90;999.90;;;12.00;99.90;;;;;;5067923;28;20044;-76
2023/04/28 09:48:29;;;;;;;1999.90;999.90;;;11.90;99.90;;;;;;5067402;28;20060;-76
2023/04/28 09:50:56;;;;;;;1999.90;999.90;;;12.10;99.90;;;;;;5068034;28;20032;-76
2023/04/28 09:53:26;;;;;;;1999.90;999.90;;;12.00;99.90;;;;;;5068861;28;20050;-76
2023/04/28 09:55:54;;;;;;;;;;;12.00;99.90;;;;;;5047006;28;20032;-76
2023/04/28 09:58:22;;;;;;;1999.90;999.90;;;12.00;99.90;;;;;;5074283;28;20007;-76
2023/04/28 10:00:58;;;;;;;1999.90;999.90;;;11.90;99.90;;;;;;5066554;28;20029;-75
2023/04/28 10:03:26;;;;;;;1999.90;999.90;;;11.90;99.90;;;;;;5069872;28;20040;-76
2023/04/28 10:05:52;;;;;;;1999.90;999.90;;;12.00;99.90;;;;;;5051252;28;20029;-76
2023/04/28 10:08:20;;;;;;;1999.90;999.90;;;12.00;99.90;;;;;;5065884;28;20037;-75
2023/04/28 10:10:48;;;;;;;1999.90;999.90;;;11.90;99.90;;;;;;5070834;28;20028;-75
2023/04/28 10:13:18;;;;;;;1999.90;999.90;;;12.00;99.90;;;;;;5068305;28;20094;-77
2023/04/28 10:15:44;;;;;;;1999.90;999.90;;;12.10;99.90;;;;;;5072431;28;20082;-75
2023/04/28 10:18:12;;;;;;;1999.90;999.90;;;12.20;99.90;;;;;;5074514;28;20025;-75
2023/04/28 10:20:38;;;;;;;1999.90;999.90;;;12.10;99.90;;;;;;5065176;28;20021;-74
2023/04/28 10:23:35;;;;;;;1999.90;999.90;;;12.10;99.90;;;;;;5052546;28;20025;-76
2023/04/28 10:26:02;;;;;;;1999.90;999.90;;;12.30;99.90;;;;;;5072188;28;20048;-75
2023/04/28 10:28:28;;;;;;;1999.90;999.90;;;12.40;99.90;;;;;;5065838;28;20032;-76
2023/04/28 10:31:24;;;;;;;1999.90;999.90;;;12.40;99.90;;;;;;5055383;28;20039;-75
2023/04/28 10:33:49;;;;;;;1999.90;999.90;;;12.50;99.90;;;;;;5047791;28;20041;-76
2023/04/28 10:36:49;;;;;;;1999.90;999.90;;;12.60;99.90;;;;;;5055448;28;20509;-74
2023/04/28 10:39:15;;;;;;;1999.90;999.90;;;12.60;99.90;;;;;;5011576;28;20837;-75
2023/04/28 10:41:41;;;;;;;1999.90;999.90;;;12.60;99.90;;;;;;5078065;28;20039;-74
2023/04/28 10:44:28;;;;;;;1999.90;999.90;;;12.50;99.90;;;;;;5067816;28;20403;-73
2023/04/28 10:47:08;;;;;;;1999.90;999.90;;;12.40;99.90;;;;;;5070118;28;20107;-74
2023/04/28 10:50:00;;;;;;;1999.90;999.90;;;12.40;99.90;;;;;;5058613;28;20111;-76
2023/04/28 10:52:38;;;;;;;1999.90;999.90;;;12.40;99.90;;;;;;5076010;28;20025;-74
2023/04/28 10:55:41;;;;;;;1999.90;999.90;;;12.80;99.90;;;;;;5076347;28;20025;-73
2023/04/28 10:58:16;;;;;;;1999.90;999.90;;;12.90;99.90;;;;;;5071588;28;20036;-74
2023/04/28 11:00:52;;;;;;;1999.90;999.90;;;12.90;99.90;;;;;;5067985;28;20573;-72
2023/04/28 11:03:45;;;;;;;1999.90;999.90;;;12.70;99.90;;;;;;5067964;28;20119;-72
2023/04/28 11:06:28;;;;;;;1999.90;999.90;;;12.40;99.90;;;;;;5073072;28;20024;-72
2023/04/28 11:09:02;;;;;;;1999.90;999.90;;;12.40;99.90;;;;;;5057813;28;20035;-72
2023/04/28 11:11:28;;;;;;;1999.90;999.90;;;12.50;99.90;;;;;;5060209;28;20162;-71
2023/04/28 11:14:10;;;;;;;1999.90;999.90;;;12.60;99.90;;;;;;5073098;28;20062;-72
2023/04/28 11:17:00;;;;;;;1999.90;999.90;;;12.70;99.90;;;;;;5074028;28;20037;-73
2023/04/28 11:19:33;;;;;;;1999.90;999.90;;;12.90;99.90;;;;;;5067420;28;21548;-73
2023/04/28 11:22:01;;;;;;;1999.90;999.90;;;13.10;99.90;;;;;;5040784;28;20784;-72
2023/04/28 11:24:28;;;;;;;1999.90;999.90;;;12.90;99.90;;;;;;5040190;28;20492;-72
2023/04/28 11:26:54;;;;;;;1999.90;999.90;;;12.80;99.90;;;;;;5030736;28;20034;-72
2023/04/28 11:29:34;;;;;;;1999.90;999.90;;;12.60;99.90;;;;;;5014634;28;20037;-71
2023/04/28 11:32:00;;;;;;;1999.90;999.90;;;12.60;99.90;;;;;;5034098;28;20025;-74
2023/04/28 11:34:25;;;;;;;1999.90;999.90;;;12.70;99.90;;;;;;5035606;28;20434;-70
2023/04/28 11:36:51;;;;;;;1999.90;999.90;;;12.70;99.90;;;;;;5025385;28;20037;-71
2023/04/28 11:39:27;;;;;;;1999.90;999.90;;;12.80;99.90;;;;;;5027985;28;20030;-70
2023/04/28 11:41:53;;;;;;;1999.90;999.90;;;12.70;99.90;;;;;;5027185;28;20068;-70
2023/04/28 11:44:28;;;;;;;1999.90;999.90;;;13.00;99.90;;;;;;5030317;28;20657;-71
2023/04/28 11:46:56;;;;;;;1999.90;999.90;;;13.50;99.90;;;;;;5032808;28;20037;-70
2023/04/28 11:49:29;;;;;;;1999.90;999.90;;;13.20;99.90;;;;;;5033638;28;20457;-70
2023/04/28 11:51:56;;;;;;;1999.90;999.90;;;13.00;99.90;;;;;;5031555;28;20112;-70
2023/04/28 11:54:23;;;;;;;1999.90;999.90;;;13.60;99.90;;;;;;5032607;28;20103;-70
2023/04/28 11:56:50;;;;;;;1999.90;999.90;;;14.30;99.90;;;;;;5034009;28;21205;-70
2023/04/28 11:59:16;;;;;;;1999.90;999.90;;;14.10;99.90;;;;;;5031847;28;20569;-71
2023/04/28 12:01:45;;;;;;;1999.90;999.90;;;13.90;99.90;;;;;;5031327;28;20037;-69
2023/04/28 12:04:11;;;;;;;1999.90;999.90;;;13.70;99.90;;;;;;5028285;28;20055;-70
2023/04/28 12:06:39;;;;;;;1999.90;999.90;;;13.80;99.90;;;;;;5034138;28;20037;-70
2023/04/28 12:09:20;;;;;;;1999.90;999.90;;;13.90;99.90;;;;;;5032233;28;20056;-71